Time;durP1;ratioP1;P1;durP2;ratioP2;P2;SDS_P1;SDS_P2;PMS_P1;PMS_P2;Temp;Humidity;BMP_temperature;BMP_pressure;BME280_temperature;BME280_humidity;BME280_pressure;Samples;Min_cycle;Max_cycle;Signal;HPM_P1;HPM_P2
2023/03/01 00:01:15;;;;;;;2.25;2.03;;;9.40;56.70;;;;;;5012538;28;20025;-75
2023/03/01 00:03:41;;;;;;;4.05;2.92;;;9.40;56.70;;;;;;5016682;28;20037;-75
2023/03/01 00:06:08;;;;;;;2.30;2.10;;;9.40;56.60;;;;;;5003856;28;20030;-75
2023/03/01 00:08:35;;;;;;;2.08;1.88;;;9.50;56.80;;;;;;4999970;28;20440;-75
2023/03/01 00:11:07;;;;;;;1.92;1.70;;;9.40;56.60;;;;;;5009750;28;20037;-76
2023/03/01 00:13:34;;;;;;;2.38;1.80;;;9.40;56.60;;;;;;5001899;28;20026;-76
2023/03/01 00:16:03;;;;;;;1.50;1.30;;;9.40;56.60;;;;;;4998887;28;20803;-77
2023/03/01 00:18:29;;;;;;;1.50;1.17;;;9.40;56.70;;;;;;5001791;28;20666;-77
2023/03/01 00:20:55;;;;;;;1.42;1.33;;;9.40;56.70;;;;;;5006914;28;20108;-76
2023/03/01 00:23:23;;;;;;;1.65;1.52;;;9.40;56.70;;;;;;5002082;28;20060;-77
2023/03/01 00:25:49;;;;;;;2.70;1.45;;;9.40;56.70;;;;;;5002118;28;20067;-77
2023/03/01 00:28:15;;;;;;;2.10;1.30;;;9.40;56.70;;;;;;4999051;28;20133;-77
2023/03/01 00:30:41;;;;;;;1.33;1.20;;;9.30;56.50;;;;;;5003682;28;20096;-76
2023/03/01 00:33:07;;;;;;;1.48;1.10;;;9.30;56.50;;;;;;5001410;28;20121;-77
2023/03/01 00:35:34;;;;;;;1.02;0.90;;;9.30;56.60;;;;;;5014846;28;20072;-77
2023/03/01 00:38:00;;;;;;;1.20;1.02;;;9.30;56.50;;;;;;5001698;28;20161;-76
2023/03/01 00:40:28;;;;;;;0.90;0.88;;;9.30;56.50;;;;;;5004124;28;20045;-77
2023/03/01 00:42:54;;;;;;;1.10;1.00;;;9.30;56.50;;;;;;5001595;28;20268;-76
2023/03/01 00:45:19;;;;;;;1.45;1.05;;;9.30;56.50;;;;;;4999575;28;20100;-76
2023/03/01 00:47:45;;;;;;;0.88;0.85;;;9.30;56.50;;;;;;5002662;28;20125;-76
2023/03/01 00:50:12;;;;;;;0.70;0.70;;;9.30;56.40;;;;;;5017430;28;20029;-76
2023/03/01 00:52:38;;;;;;;0.75;0.75;;;9.30;56.40;;;;;;5008061;28;20408;-76
2023/03/01 00:55:04;;;;;;;1.63;0.80;;;9.30;56.40;;;;;;5017926;28;20252;-77
2023/03/01 00:57:30;;;;;;;0.80;0.70;;;9.30;56.30;;;;;;5018858;28;20068;-77
2023/03/01 00:59:56;;;;;;;0.50;0.50;;;9.20;56.10;;;;;;5002869;28;20125;-75
2023/03/01 01:02:22;;;;;;;0.77;0.70;;;9.20;56.00;;;;;;5004621;28;20349;-75
2023/03/01 01:04:48;;;;;;;0.43;0.43;;;9.20;56.00;;;;;;4983364;28;20037;-76
2023/03/01 01:07:15;;;;;;;1.10;0.70;;;9.20;56.00;;;;;;4999572;28;20068;-76
2023/03/01 01:09:41;;;;;;;0.47;0.47;;;9.20;55.90;;;;;;4985168;28;20666;-76
2023/03/01 01:12:07;;;;;;;1.85;0.70;;;9.20;55.80;;;;;;5004738;28;20021;-77
2023/03/01 01:14:34;;;;;;;0.70;0.63;;;9.10;55.50;;;;;;4998836;28;20516;-77
2023/03/01 01:17:00;;;;;;;0.55;0.55;;;9.10;55.50;;;;;;4982592;28;20385;-77
2023/03/01 01:19:26;;;;;;;0.52;0.52;;;9.10;55.50;;;;;;4999726;28;20040;-78
2023/03/01 01:21:52;;;;;;;0.55;0.40;;;9.10;55.50;;;;;;5004900;28;20022;-77
2023/03/01 01:24:19;;;;;;;0.80;0.80;;;9.10;55.40;;;;;;5013662;28;20057;-77
2023/03/01 01:26:45;;;;;;;0.85;0.60;;;9.10;55.40;;;;;;5013721;28;20048;-77
2023/03/01 01:29:12;;;;;;;0.93;0.60;;;9.10;55.40;;;;;;5017404;28;20099;-76
2023/03/01 01:31:40;;;;;;;0.50;0.50;;;9.00;55.70;;;;;;5018279;28;20425;-76
2023/03/01 01:34:08;;;;;;;1.23;0.75;;;9.00;55.20;;;;;;5018542;28;20029;-76
2023/03/01 01:36:34;;;;;;;0.50;0.40;;;9.00;55.10;;;;;;5015921;28;20041;-76
2023/03/01 01:39:01;;;;;;;0.93;0.52;;;9.00;55.10;;;;;;5018440;28;20418;-76
2023/03/01 01:41:28;;;;;;;1.23;0.60;;;9.00;55.10;;;;;;5017586;28;20029;-77
2023/03/01 01:44:16;;;;;;;0.40;0.40;;;9.00;55.00;;;;;;5013235;28;20029;-76
2023/03/01 01:46:45;;;;;;;0.70;0.57;;;9.00;55.00;;;;;;5018168;28;20034;-75
2023/03/01 01:49:36;;;;;;;0.52;0.52;;;9.00;55.00;;;;;;5012586;28;20088;-74
2023/03/01 01:52:35;;;;;;;0.65;0.60;;;9.00;55.00;;;;;;5019315;28;20045;-76
2023/03/01 01:55:20;;;;;;;0.43;0.43;;;9.00;55.00;;;;;;4994682;28;20073;-75
2023/03/01 01:57:50;;;;;;;0.90;0.60;;;8.90;54.80;;;;;;5017707;28;20064;-75
2023/03/01 02:00:20;;;;;;;0.68;0.68;;;8.90;54.80;;;;;;5009915;28;20056;-76
2023/03/01 02:02:51;;;;;;;0.65;0.57;;;9.00;55.00;;;;;;4982399;28;20045;-76
2023/03/01 02:05:36;;;;;;;0.90;0.50;;;8.90;54.80;;;;;;5007625;28;20030;-74
2023/03/01 02:08:02;;;;;;;0.60;0.50;;;8.90;54.90;;;;;;5016293;28;20041;-75
2023/03/01 02:10:33;;;;;;;0.55;0.47;;;8.90;54.90;;;;;;5016442;28;20501;-75
2023/03/01 02:13:00;;;;;;;0.40;0.40;;;8.90;54.90;;;;;;5017486;28;20499;-76
2023/03/01 02:15:26;;;;;;;0.38;0.38;;;8.90;55.00;;;;;;5016626;28;20034;-75
2023/03/01 02:17:54;;;;;;;0.40;0.30;;;8.80;54.80;;;;;;5018601;28;20044;-75
2023/03/01 02:20:50;;;;;;;0.73;0.50;;;8.80;54.80;;;;;;5018725;28;20029;-74
2023/03/01 02:23:17;;;;;;;0.77;0.40;;;8.80;54.80;;;;;;5010121;28;20076;-74
2023/03/01 02:25:58;;;;;;;0.50;0.38;;;8.80;54.80;;;;;;5020159;28;20044;-75
2023/03/01 02:28:33;;;;;;;1.60;0.50;;;8.80;54.80;;;;;;5007768;28;20307;-75
2023/03/01 02:33:45;;;;;;;0.60;0.40;;;8.80;54.80;;;;;;5018215;28;20033;-75
2023/03/01 02:36:18;;;;;;;0.70;0.50;;;8.80;54.80;;;;;;5021124;28;20048;-76
2023/03/01 02:38:44;;;;;;;0.77;0.43;;;8.80;54.80;;;;;;5023079;28;20112;-76
2023/03/01 02:41:14;;;;;;;0.57;0.40;;;8.80;54.80;;;;;;5021018;28;20636;-76
2023/03/01 02:43:40;;;;;;;0.68;0.50;;;8.80;54.80;;;;;;5020736;28;20124;-75
2023/03/01 02:46:19;;;;;;;1.58;0.60;;;8.70;54.60;;;;;;4996320;28;20107;-76
2023/03/01 02:48:56;;;;;;;0.65;0.30;;;8.80;54.90;;;;;;5022076;28;20037;-76
2023/03/01 02:51:42;;;;;;;1.75;0.40;;;8.80;54.90;;;;;;5021047;28;20025;-75
2023/03/01 02:54:27;;;;;;;0.43;0.30;;;8.70;54.70;;;;;;5023382;28;20059;-76
2023/03/01 02:56:55;;;;;;;0.73;0.52;;;8.70;54.70;;;;;;5021554;28;20400;-76
2023/03/01 02:59:27;;;;;;;0.40;0.40;;;8.70;54.80;;;;;;5010724;28;20038;-75
2023/03/01 03:01:53;;;;;;;0.85;0.47;;;8.70;54.80;;;;;;5026018;28;20029;-76
2023/03/01 03:04:20;;;;;;;1.15;0.50;;;8.70;54.80;;;;;;5023394;28;20040;-76
2023/03/01 03:06:50;;;;;;;0.55;0.50;;;8.60;54.70;;;;;;5024893;28;20090;-75
2023/03/01 03:09:17;;;;;;;0.35;0.35;;;8.70;54.90;;;;;;5024214;28;20545;-76
2023/03/01 03:11:44;;;;;;;1.40;0.47;;;8.70;55.00;;;;;;5025201;28;20022;-76
2023/03/01 03:14:12;;;;;;;0.52;0.50;;;8.70;55.00;;;;;;5024651;28;20755;-76
2023/03/01 03:16:42;;;;;;;0.85;0.43;;;8.70;55.00;;;;;;5006435;28;20677;-76
2023/03/01 03:19:08;;;;;;;1.00;0.70;;;8.60;54.80;;;;;;5015430;28;20033;-76
2023/03/01 03:21:34;;;;;;;0.93;0.45;;;8.60;54.90;;;;;;5024665;28;20603;-74
2023/03/01 03:24:00;;;;;;;0.75;0.75;;;8.60;54.90;;;;;;5016997;28;20037;-77
2023/03/01 03:26:26;;;;;;;0.60;0.57;;;8.60;54.90;;;;;;5016590;28;20025;-77
2023/03/01 03:28:52;;;;;;;0.38;0.32;;;8.60;55.00;;;;;;5022472;28;20075;-75
2023/03/01 03:31:19;;;;;;;0.70;0.50;;;8.60;54.90;;;;;;5005514;28;20441;-76
2023/03/01 03:33:44;;;;;;;2.40;0.65;;;8.60;55.00;;;;;;5020735;28;20025;-75
2023/03/01 03:36:19;;;;;;;1.00;0.65;;;8.60;54.90;;;;;;5022137;28;21054;-75
2023/03/01 03:38:46;;;;;;;1.17;0.60;;;8.60;55.00;;;;;;5021080;28;20029;-76
2023/03/01 03:41:12;;;;;;;1.23;0.55;;;8.60;54.90;;;;;;5023347;28;20041;-75
2023/03/01 03:43:40;;;;;;;2.22;0.70;;;8.60;54.90;;;;;;5021150;28;20497;-75
2023/03/01 03:46:07;;;;;;;1.25;0.88;;;8.60;55.50;;;;;;5025321;28;20117;-76
2023/03/01 03:48:35;;;;;;;1.00;0.65;;;8.60;55.00;;;;;;5023034;28;20136;-75
2023/03/01 03:51:01;;;;;;;1.27;0.50;;;8.60;55.00;;;;;;5017976;28;20033;-76
2023/03/01 03:53:28;;;;;;;0.45;0.45;;;8.50;55.00;;;;;;5024505;28;20029;-76
2023/03/01 03:55:54;;;;;;;1.27;0.70;;;8.50;54.90;;;;;;5020163;28;20480;-75
2023/03/01 03:58:23;;;;;;;1.25;0.55;;;8.50;54.90;;;;;;5017958;28;20018;-75
2023/03/01 04:00:51;;;;;;;0.68;0.52;;;8.50;54.90;;;;;;5004205;28;20030;-75
2023/03/01 04:03:19;;;;;;;0.73;0.50;;;8.40;54.70;;;;;;5008919;28;20033;-74
2023/03/01 04:05:46;;;;;;;1.17;0.50;;;8.50;55.00;;;;;;5005530;28;20183;-76
2023/03/01 04:08:13;;;;;;;1.25;0.80;;;8.50;55.00;;;;;;5006115;28;20046;-76
2023/03/01 04:10:44;;;;;;;1.08;0.52;;;8.40;54.80;;;;;;5003673;28;20561;-75
2023/03/01 04:13:16;;;;;;;1.55;0.60;;;8.40;54.80;;;;;;5011788;28;20021;-75
2023/03/01 04:15:43;;;;;;;0.67;0.50;;;8.40;54.80;;;;;;5008690;28;20613;-75
2023/03/01 04:18:12;;;;;;;1.77;0.70;;;8.40;54.80;;;;;;5006678;28;20057;-75
2023/03/01 04:20:38;;;;;;;0.55;0.55;;;8.40;54.80;;;;;;5005762;28;20061;-74
2023/03/01 04:23:19;;;;;;;1.15;0.60;;;8.40;54.90;;;;;;5004181;28;20060;-75
2023/03/01 04:25:54;;;;;;;1.00;0.60;;;8.40;54.90;;;;;;5014881;28;20022;-75
2023/03/01 04:28:25;;;;;;;0.55;0.45;;;8.40;55.40;;;;;;5004693;28;20145;-75
2023/03/01 04:30:52;;;;;;;0.93;0.70;;;8.40;54.90;;;;;;5005189;28;20084;-75
2023/03/01 04:33:19;;;;;;;1.40;0.70;;;8.40;54.90;;;;;;5005206;28;20026;-75
2023/03/01 04:35:45;;;;;;;0.68;0.68;;;8.40;54.90;;;;;;5005467;28;20061;-76
2023/03/01 04:38:11;;;;;;;1.08;0.70;;;8.40;55.00;;;;;;5005714;28;20477;-76
2023/03/01 04:40:37;;;;;;;0.70;0.60;;;8.40;55.00;;;;;;5006197;28;20033;-76
2023/03/01 04:43:04;;;;;;;0.70;0.70;;;8.30;54.80;;;;;;4988263;28;20177;-75
2023/03/01 04:45:32;;;;;;;2.10;0.73;;;8.40;55.00;;;;;;5005097;28;20040;-76
2023/03/01 04:47:58;;;;;;;0.68;0.60;;;8.30;54.90;;;;;;5006397;28;20033;-77
2023/03/01 04:50:25;;;;;;;0.75;0.75;;;8.30;55.00;;;;;;5021121;28;20387;-76
2023/03/01 04:52:52;;;;;;;1.55;0.93;;;8.30;55.00;;;;;;5018512;28;20037;-77
2023/03/01 04:55:18;;;;;;;0.93;0.70;;;8.30;55.00;;;;;;5020427;28;20039;-77
2023/03/01 04:57:44;;;;;;;2.22;0.80;;;8.30;55.00;;;;;;5025079;28;20072;-77
2023/03/01 05:00:21;;;;;;;1.20;1.10;;;8.30;55.00;;;;;;5015586;28;20511;-77
2023/03/01 05:02:56;;;;;;;1.88;0.80;;;8.30;55.10;;;;;;5005566;28;20323;-74
2023/03/01 05:05:28;;;;;;;1.38;1.10;;;8.30;55.20;;;;;;5003431;28;20595;-74
2023/03/01 05:07:56;;;;;;;1.70;1.60;;;8.20;55.00;;;;;;5003890;28;20507;-74
2023/03/01 05:10:23;;;;;;;1.35;1.25;;;8.30;55.30;;;;;;5004030;28;20069;-75
2023/03/01 05:12:51;;;;;;;1.38;1.10;;;8.20;55.10;;;;;;5003005;28;20042;-76
2023/03/01 05:15:18;;;;;;;2.05;1.85;;;8.20;55.20;;;;;;5003888;28;20112;-75
2023/03/01 05:17:46;;;;;;;1.52;1.42;;;8.20;55.20;;;;;;5005471;28;20042;-76
2023/03/01 05:20:12;;;;;;;5.57;1.60;;;8.20;55.30;;;;;;5004408;28;20040;-76
2023/03/01 05:22:38;;;;;;;1.55;1.45;;;8.20;55.30;;;;;;5003498;28;20045;-75
2023/03/01 05:25:05;;;;;;;1.40;1.23;;;8.20;55.40;;;;;;5004547;28;20508;-74
2023/03/01 05:27:31;;;;;;;1.90;1.80;;;8.20;55.40;;;;;;5004177;28;20053;-75
2023/03/01 05:29:57;;;;;;;1.52;1.40;;;8.20;55.40;;;;;;5017429;28;20520;-74
2023/03/01 05:32:23;;;;;;;2.72;1.60;;;8.20;55.50;;;;;;5015343;28;20038;-73
2023/03/01 05:34:49;;;;;;;2.38;1.52;;;8.20;55.50;;;;;;5018967;28;20029;-74
2023/03/01 05:37:15;;;;;;;2.22;1.83;;;8.20;55.60;;;;;;5009111;28;20044;-74
2023/03/01 05:39:41;;;;;;;1.80;1.70;;;8.20;55.60;;;;;;5005783;28;20072;-74
2023/03/01 05:42:10;;;;;;;2.08;1.55;;;8.20;55.70;;;;;;5004628;28;20037;-74
2023/03/01 05:44:37;;;;;;;2.25;1.80;;;8.20;55.70;;;;;;5004408;28;20037;-74
2023/03/01 05:47:03;;;;;;;11.63;2.05;;;8.10;55.60;;;;;;5027319;28;20133;-73
2023/03/01 05:49:29;;;;;;;2.45;1.90;;;8.10;55.60;;;;;;5013103;28;20128;-73
2023/03/01 05:51:55;;;;;;;2.00;1.55;;;8.10;55.70;;;;;;5016215;28;20065;-74
2023/03/01 05:54:22;;;;;;;2.50;1.95;;;8.10;55.70;;;;;;5019650;28;20488;-76
2023/03/01 05:56:48;;;;;;;2.80;1.95;;;8.10;55.80;;;;;;5016494;28;20140;-74
2023/03/01 05:59:16;;;;;;;2.72;1.90;;;8.10;55.90;;;;;;5006076;28;20076;-74
2023/03/01 06:01:42;;;;;;;2.22;1.90;;;8.10;56.00;;;;;;5014273;28;20117;-74
2023/03/01 06:04:08;;;;;;;2.55;1.83;;;8.00;55.80;;;;;;5024477;28;20041;-74
2023/03/01 06:06:37;;;;;;;2.88;2.13;;;8.00;55.90;;;;;;5012819;28;20080;-75
2023/03/01 06:09:04;;;;;;;1.85;1.75;;;8.00;56.00;;;;;;5018270;28;20041;-77
2023/03/01 06:11:30;;;;;;;2.00;1.80;;;8.00;56.10;;;;;;5016537;28;20049;-77
2023/03/01 06:13:56;;;;;;;2.88;2.00;;;8.00;56.10;;;;;;5017784;28;20041;-76
2023/03/01 06:16:22;;;;;;;2.92;1.90;;;8.00;56.20;;;;;;5015099;28;20100;-76
2023/03/01 06:18:48;;;;;;;1.80;1.70;;;8.00;56.20;;;;;;5017079;28;20040;-74
2023/03/01 06:21:14;;;;;;;2.42;1.90;;;8.00;56.20;;;;;;5014845;28;20066;-74
2023/03/01 06:23:40;;;;;;;2.53;1.90;;;8.00;56.20;;;;;;5016317;28;20274;-74
2023/03/01 06:26:07;;;;;;;2.22;2.03;;;8.00;56.30;;;;;;5013616;28;20030;-74
2023/03/01 06:28:33;;;;;;;2.30;2.10;;;8.00;56.30;;;;;;5014591;28;20942;-74
2023/03/01 06:30:59;;;;;;;1.75;1.65;;;8.00;56.40;;;;;;5012095;28;20076;-76
2023/03/01 06:33:25;;;;;;;2.58;2.03;;;8.00;56.40;;;;;;5012844;28;20069;-74
2023/03/01 06:35:54;;;;;;;2.38;2.17;;;7.90;56.30;;;;;;5014585;28;20199;-72
2023/03/01 06:38:20;;;;;;;2.88;2.30;;;7.90;56.30;;;;;;5015062;28;20117;-72
2023/03/01 06:40:52;;;;;;;2.60;2.40;;;7.90;56.40;;;;;;5015752;28;20030;-74
2023/03/01 06:43:18;;;;;;;3.45;2.70;;;7.90;56.40;;;;;;5014297;28;20038;-73
2023/03/01 06:45:45;;;;;;;5.90;2.85;;;8.00;56.70;;;;;;5015606;28;20055;-74
2023/03/01 06:48:11;;;;;;;4.97;2.55;;;7.90;56.50;;;;;;5007242;28;20099;-73
2023/03/01 06:50:37;;;;;;;3.10;2.80;;;7.90;56.60;;;;;;5018232;28;20048;-74
2023/03/01 06:53:03;;;;;;;3.33;2.60;;;7.90;56.70;;;;;;5011506;28;20038;-76
2023/03/01 06:55:30;;;;;;;3.53;2.90;;;7.90;56.80;;;;;;5015786;28;20041;-74
2023/03/01 06:57:58;;;;;;;3.72;2.45;;;7.90;56.80;;;;;;5010393;28;20253;-73
2023/03/01 07:00:25;;;;;;;2.80;2.40;;;7.90;56.90;;;;;;5011287;28;20040;-73
2023/03/01 07:02:51;;;;;;;4.22;2.88;;;7.90;56.90;;;;;;5004057;28;20087;-74
2023/03/01 07:05:17;;;;;;;2.55;2.25;;;7.90;57.00;;;;;;5013008;28;20393;-73
2023/03/01 07:07:43;;;;;;;3.80;2.97;;;7.90;57.40;;;;;;5007184;28;20579;-74
2023/03/01 07:10:10;;;;;;;3.15;2.28;;;8.00;57.80;;;;;;5010129;28;20095;-74
2023/03/01 07:12:36;;;;;;;3.55;2.40;;;8.10;58.20;;;;;;5015498;28;20095;-75
2023/03/01 07:15:04;;;;;;;2.47;1.98;;;8.20;58.60;;;;;;5018062;28;20029;-73
2023/03/01 07:17:30;;;;;;;4.38;2.47;;;8.30;58.90;;;;;;5008211;28;20060;-74
2023/03/01 07:19:56;;;;;;;2.45;1.50;;;8.30;59.00;;;;;;5012349;28;20489;-74
2023/03/01 07:22:22;;;;;;;3.58;1.92;;;8.40;59.30;;;;;;5011667;28;20420;-74
2023/03/01 07:24:48;;;;;;;2.90;2.00;;;8.50;59.40;;;;;;5018513;28;20142;-73
2023/03/01 07:27:14;;;;;;;3.35;2.40;;;8.60;59.50;;;;;;5012311;28;20593;-74
2023/03/01 07:29:40;;;;;;;2.30;2.10;;;8.60;60.00;;;;;;5009156;28;20148;-74
2023/03/01 07:32:06;;;;;;;3.17;2.40;;;8.60;59.40;;;;;;5008417;28;20525;-73
2023/03/01 07:34:32;;;;;;;2.35;2.15;;;8.60;59.30;;;;;;5015112;28;20546;-73
2023/03/01 07:36:58;;;;;;;2.33;2.13;;;8.60;59.30;;;;;;5015321;28;20393;-73
2023/03/01 07:39:24;;;;;;;2.53;2.17;;;8.60;59.30;;;;;;5018258;28;20037;-73
2023/03/01 07:41:51;;;;;;;3.10;1.95;;;8.50;59.00;;;;;;5016135;28;20434;-73
2023/03/01 07:44:21;;;;;;;3.55;2.33;;;8.50;59.00;;;;;;5015288;28;20045;-74
2023/03/01 07:46:47;;;;;;;2.42;2.10;;;8.50;59.10;;;;;;4998918;28;20100;-73
2023/03/01 07:49:13;;;;;;;3.03;1.92;;;8.50;59.00;;;;;;5013981;28;20030;-74
2023/03/01 07:51:38;;;;;;;2.40;2.20;;;8.50;59.00;;;;;;5001472;28;20297;-73
2023/03/01 07:54:05;;;;;;;3.72;1.65;;;8.50;58.90;;;;;;5014961;28;20516;-73
2023/03/01 07:56:31;;;;;;;3.97;2.00;;;8.50;58.90;;;;;;5004017;28;20038;-73
2023/03/01 07:58:59;;;;;;;2.90;2.10;;;8.60;59.00;;;;;;5007285;28;20091;-73
2023/03/01 08:01:25;;;;;;;2.92;2.33;;;8.60;58.90;;;;;;5009982;28;20064;-73
2023/03/01 08:03:51;;;;;;;4.47;2.33;;;8.60;58.90;;;;;;5011497;28;20044;-74
2023/03/01 08:06:17;;;;;;;3.95;2.25;;;8.70;59.00;;;;;;5006411;28;20034;-73
2023/03/01 08:08:44;;;;;;;3.30;2.47;;;8.70;58.80;;;;;;5008839;28;20417;-75
2023/03/01 08:11:14;;;;;;;2.67;2.47;;;8.80;58.90;;;;;;5001791;28;20057;-73
2023/03/01 08:13:40;;;;;;;1.80;1.70;;;8.80;58.80;;;;;;5002167;28;20057;-73
2023/03/01 08:16:12;;;;;;;3.15;2.00;;;8.80;58.60;;;;;;5002567;28;20037;-73
2023/03/01 08:18:38;;;;;;;2.50;1.75;;;8.80;58.50;;;;;;5007923;28;20488;-73
2023/03/01 08:21:15;;;;;;;2.63;1.90;;;8.80;58.40;;;;;;5000969;28;20049;-73
2023/03/01 08:23:42;;;;;;;5.60;1.98;;;8.90;58.50;;;;;;5011449;28;20732;-74
2023/03/01 08:26:18;;;;;;;5.50;1.95;;;8.80;58.30;;;;;;5012027;28;20039;-74
2023/03/01 08:28:45;;;;;;;3.28;1.90;;;8.90;58.50;;;;;;5012736;28;20267;-74
2023/03/01 08:31:16;;;;;;;3.53;2.60;;;8.90;58.40;;;;;;5016452;28;20030;-74
2023/03/01 08:33:43;;;;;;;2.38;1.80;;;8.90;58.30;;;;;;5015075;28;20099;-73
2023/03/01 08:36:09;;;;;;;2.05;1.70;;;8.90;58.20;;;;;;5017799;28;20363;-74
2023/03/01 08:38:35;;;;;;;3.05;1.60;;;9.00;58.30;;;;;;5016573;28;20037;-74
2023/03/01 08:41:03;;;;;;;3.03;1.83;;;8.90;58.10;;;;;;5013139;28;20345;-74
2023/03/01 08:43:29;;;;;;;2.10;1.90;;;9.00;58.20;;;;;;4994745;28;20403;-74
2023/03/01 08:45:55;;;;;;;3.88;2.00;;;9.00;58.10;;;;;;5016131;28;20110;-75
2023/03/01 08:48:21;;;;;;;2.58;1.70;;;9.00;58.60;;;;;;5013965;28;20034;-74
2023/03/01 08:50:47;;;;;;;2.85;1.80;;;9.10;58.10;;;;;;5008820;28;20405;-73
2023/03/01 08:53:13;;;;;;;3.15;1.70;;;9.10;58.00;;;;;;4999625;28;20363;-73
2023/03/01 08:55:39;;;;;;;3.47;1.40;;;9.10;58.00;;;;;;5008789;28;20037;-73
2023/03/01 08:58:05;;;;;;;1.92;1.73;;;9.20;58.00;;;;;;5008263;28;20214;-74
2023/03/01 09:00:30;;;;;;;2.47;2.10;;;9.20;57.90;;;;;;4998155;28;20425;-74
2023/03/01 09:02:56;;;;;;;2.90;1.83;;;9.30;58.00;;;;;;5007691;28;20034;-74
2023/03/01 09:05:22;;;;;;;3.72;1.98;;;9.30;57.80;;;;;;5013156;28;20519;-74
2023/03/01 09:07:48;;;;;;;2.75;1.90;;;9.40;58.00;;;;;;5003209;28;20049;-73
2023/03/01 09:10:14;;;;;;;2.78;1.98;;;9.40;57.90;;;;;;5013438;28;20571;-76
2023/03/01 09:12:40;;;;;;;3.35;2.00;;;9.40;57.90;;;;;;5008332;28;20379;-75
2023/03/01 09:15:06;;;;;;;4.05;2.40;;;9.50;57.90;;;;;;5006636;28;20388;-76
2023/03/01 09:17:32;;;;;;;2.42;2.08;;;9.60;58.00;;;;;;5006208;28;20026;-75
2023/03/01 09:19:59;;;;;;;3.50;2.30;;;9.60;57.90;;;;;;5008284;28;20364;-75
2023/03/01 09:22:25;;;;;;;3.05;1.80;;;9.70;58.00;;;;;;5004710;28;20061;-75
2023/03/01 09:24:51;;;;;;;2.67;2.25;;;9.80;57.90;;;;;;5003768;28;20030;-75
2023/03/01 09:27:18;;;;;;;2.60;2.03;;;10.00;58.00;;;;;;5004110;28;20084;-75
2023/03/01 09:29:45;;;;;;;2.85;2.50;;;10.20;57.90;;;;;;5000992;28;20709;-75
2023/03/01 09:32:10;;;;;;;3.40;2.20;;;10.40;57.90;;;;;;5002027;28;20168;-74
2023/03/01 09:37:44;;;;;;;3.28;2.08;;;10.50;57.60;;;;;;5024132;28;20095;-74
2023/03/01 09:40:19;;;;;;;2.13;1.90;;;10.60;57.70;;;;;;5026087;28;20041;-75
2023/03/01 09:43:23;;;;;;;5.55;2.92;;;10.70;57.80;;;;;;5022652;28;20038;-74
2023/03/01 09:45:52;;;;;;;3.10;2.50;;;10.80;57.80;;;;;;5011374;28;20073;-75
2023/03/01 09:48:23;;;;;;;3.88;2.70;;;10.90;57.70;;;;;;5009509;28;20029;-75
2023/03/01 09:50:50;;;;;;;3.78;2.35;;;11.00;57.70;;;;;;5004450;28;20531;-75
2023/03/01 09:53:21;;;;;;;5.05;2.58;;;11.20;57.80;;;;;;5010764;28;20030;-75
2023/03/01 09:56:24;;;;;;;3.35;2.15;;;11.30;57.60;;;;;;5006346;28;20041;-74
2023/03/01 09:59:07;;;;;;;3.80;2.85;;;11.30;57.20;;;;;;5011820;28;20108;-75
2023/03/01 10:01:36;;;;;;;;;;;11.30;57.20;;;;;;5014010;28;20029;-74
2023/03/01 10:04:23;;;;;;;2.20;1.98;;;11.30;57.40;;;;;;5013092;28;19912;-74
2023/03/01 10:07:07;;;;;;;2.30;2.10;;;11.30;57.50;;;;;;5014337;28;20469;-76
2023/03/01 10:09:36;;;;;;;2.85;2.03;;;11.30;57.40;;;;;;5012218;28;20485;-73
2023/03/01 10:12:08;;;;;;;2.47;2.00;;;11.40;57.50;;;;;;5011495;28;20036;-74
2023/03/01 10:14:43;;;;;;;2.75;2.10;;;11.40;57.30;;;;;;5007328;28;20435;-74
2023/03/01 10:17:18;;;;;;;2.58;1.95;;;11.60;57.40;;;;;;5015393;28;20033;-73
2023/03/01 10:19:46;;;;;;;2.17;1.98;;;11.60;57.20;;;;;;5021239;28;20028;-74
2023/03/01 10:22:24;;;;;;;2.80;1.77;;;11.70;57.20;;;;;;5010535;28;20036;-74
2023/03/01 10:24:52;;;;;;;2.35;2.13;;;11.70;57.00;;;;;;5010128;28;20443;-73
2023/03/01 10:27:28;;;;;;;1.95;1.75;;;11.80;57.10;;;;;;5007634;28;20046;-73
2023/03/01 10:30:45;;;;;;;2.15;2.00;;;11.80;57.10;;;;;;5007651;28;20041;-73
2023/03/01 10:33:35;;;;;;;2.05;1.95;;;11.70;56.90;;;;;;4996948;28;20049;-74
2023/03/01 10:36:01;;;;;;;2.03;1.77;;;11.80;57.20;;;;;;5014241;28;20100;-74
2023/03/01 10:38:31;;;;;;;2.28;2.08;;;12.00;57.40;;;;;;4995383;28;20038;-73
2023/03/01 10:41:02;;;;;;;1.90;1.73;;;12.10;57.40;;;;;;5014897;28;20566;-74
2023/03/01 10:43:49;;;;;;;2.40;1.80;;;12.20;57.20;;;;;;5016509;28;20053;-73
2023/03/01 10:46:29;;;;;;;1.77;1.67;;;12.40;56.90;;;;;;5016849;28;20025;-74
2023/03/01 10:49:14;;;;;;;1.77;1.67;;;12.50;56.60;;;;;;5011582;28;20217;-74
2023/03/01 10:51:43;;;;;;;3.42;1.88;;;12.50;56.40;;;;;;5012393;28;20168;-74
2023/03/01 10:54:22;;;;;;;2.35;2.20;;;12.50;56.60;;;;;;5017614;28;20419;-74
2023/03/01 10:56:50;;;;;;;1.80;1.70;;;12.50;56.50;;;;;;5008732;28;20026;-74
2023/03/01 10:59:29;;;;;;;1.63;1.52;;;12.50;56.50;;;;;;5010964;28;20021;-74
2023/03/01 11:02:27;;;;;;;1.70;1.60;;;12.50;56.30;;;;;;5008400;28;20223;-73
2023/03/01 11:04:58;;;;;;;1.73;1.63;;;12.60;56.20;;;;;;5009607;28;20038;-73
2023/03/01 11:07:24;;;;;;;1.60;1.50;;;12.60;56.20;;;;;;5008194;28;20402;-73
2023/03/01 11:09:50;;;;;;;1.75;1.60;;;12.60;56.20;;;;;;5007050;28;20323;-73
2023/03/01 11:12:17;;;;;;;2.38;2.15;;;12.60;56.20;;;;;;5012312;28;20547;-74
2023/03/01 11:14:52;;;;;;;1.95;1.60;;;12.70;56.10;;;;;;5001098;28;20593;-74
2023/03/01 11:17:26;;;;;;;1.90;1.80;;;12.80;56.20;;;;;;5006497;28;20045;-74
2023/03/01 11:20:05;;;;;;;1.65;1.42;;;12.90;56.10;;;;;;5010654;28;20586;-74
2023/03/01 11:22:35;;;;;;;1.88;1.77;;;13.00;55.90;;;;;;5003818;28;20045;-74
2023/03/01 11:25:02;;;;;;;1.63;1.52;;;13.20;56.00;;;;;;5012096;28;20340;-73
2023/03/01 11:27:34;;;;;;;2.13;1.92;;;13.30;55.80;;;;;;5016165;28;20433;-75
2023/03/01 11:30:06;;;;;;;1.48;1.38;;;13.50;55.70;;;;;;5004789;28;20387;-74
2023/03/01 11:32:41;;;;;;;2.67;1.27;;;13.80;55.70;;;;;;5007367;28;20298;-73
2023/03/01 11:35:25;;;;;;;2.83;1.70;;;13.80;55.20;;;;;;5012445;28;20207;-73
2023/03/01 11:38:10;;;;;;;3.20;1.83;;;13.80;55.50;;;;;;5007272;28;20767;-75
2023/03/01 11:41:14;;;;;;;1.92;1.65;;;13.80;55.10;;;;;;5003217;28;20056;-74
2023/03/01 11:44:09;;;;;;;2.10;1.50;;;13.80;55.00;;;;;;5001549;28;20508;-74
2023/03/01 11:46:52;;;;;;;1.77;1.48;;;13.70;54.80;;;;;;5002070;28;20124;-72
2023/03/01 11:49:18;;;;;;;1.92;1.48;;;13.70;55.00;;;;;;5009973;28;20034;-74
2023/03/01 11:52:16;;;;;;;1.58;1.30;;;13.70;55.10;;;;;;5018231;28;20022;-74
2023/03/01 11:55:21;;;;;;;1.77;1.63;;;13.70;54.90;;;;;;5016900;28;20112;-73
2023/03/01 11:58:04;;;;;;;1.70;1.55;;;13.80;54.90;;;;;;5007510;28;20462;-74
2023/03/01 12:00:42;;;;;;;2.03;1.30;;;13.90;55.00;;;;;;5014228;28;20048;-75
2023/03/01 12:03:38;;;;;;;2.08;1.40;;;14.00;55.00;;;;;;5015221;28;20397;-74
2023/03/01 12:06:23;;;;;;;2.22;1.45;;;14.10;54.70;;;;;;5011726;28;20095;-73
2023/03/01 12:09:27;;;;;;;3.35;1.50;;;14.30;54.80;;;;;;5010659;28;20103;-74
2023/03/01 12:12:02;;;;;;;1.35;1.25;;;14.40;54.30;;;;;;5012220;28;20033;-74
2023/03/01 12:15:00;;;;;;;4.03;1.98;;;14.40;54.10;;;;;;5016466;28;20522;-73
2023/03/01 12:17:59;;;;;;;2.28;1.95;;;14.30;53.80;;;;;;5012016;28;20034;-73
2023/03/01 12:20:32;;;;;;;2.05;1.65;;;14.20;53.80;;;;;;5008584;28;20075;-74
2023/03/01 12:23:35;;;;;;;2.20;2.05;;;14.10;53.90;;;;;;5016247;28;20543;-73
2023/03/01 12:26:31;;;;;;;2.47;2.00;;;14.10;53.70;;;;;;5014719;28;20163;-73
2023/03/01 12:29:36;;;;;;;2.03;1.80;;;14.10;53.70;;;;;;5010043;28;20497;-73
2023/03/01 12:32:05;;;;;;;2.60;2.20;;;14.10;53.50;;;;;;5011726;28;20041;-73
2023/03/01 12:34:42;;;;;;;4.53;2.97;;;14.20;53.80;;;;;;5017365;28;20382;-74
2023/03/01 12:37:14;;;;;;;3.25;2.17;;;14.20;53.50;;;;;;5013963;28;20029;-73
2023/03/01 12:39:52;;;;;;;2.22;2.03;;;14.20;53.30;;;;;;5017051;28;20578;-74
2023/03/01 12:42:39;;;;;;;3.25;2.55;;;14.20;53.30;;;;;;5016070;28;20080;-74
2023/03/01 12:45:34;;;;;;;3.70;2.50;;;14.20;53.40;;;;;;5006964;28;20041;-74
2023/03/01 12:48:42;;;;;;;3.47;3.15;;;14.30;53.40;;;;;;4992516;28;20571;-74
2023/03/01 12:51:13;;;;;;;4.50;2.78;;;14.40;53.10;;;;;;4943791;28;20054;-74
2023/03/01 12:53:46;;;;;;;3.05;2.65;;;14.50;53.20;;;;;;4954845;28;20114;-75
2023/03/01 12:56:16;;;;;;;2.92;2.70;;;14.60;53.10;;;;;;4985617;28;20111;-74
2023/03/01 12:58:59;;;;;;;3.17;2.88;;;14.80;53.30;;;;;;5000312;28;20072;-74
2023/03/01 13:01:37;;;;;;;3.00;2.80;;;14.80;52.80;;;;;;5009215;28;20128;-73
2023/03/01 13:04:41;;;;;;;2.80;2.55;;;15.00;52.90;;;;;;5009775;28;20242;-75
2023/03/01 13:07:24;;;;;;;3.40;3.05;;;15.00;52.80;;;;;;4985306;28;20041;-74
2023/03/01 13:10:01;;;;;;;3.63;3.20;;;15.00;52.50;;;;;;5003282;28;20058;-74
2023/03/01 13:12:49;;;;;;;2.83;2.63;;;14.90;52.20;;;;;;5013964;28;20278;-74
2023/03/01 13:15:21;;;;;;;3.78;2.97;;;14.90;52.10;;;;;;5006747;28;20623;-75
2023/03/01 13:17:58;;;;;;;3.33;3.03;;;14.80;52.10;;;;;;5014012;28;20312;-74
2023/03/01 13:20:47;;;;;;;3.22;2.95;;;14.70;52.10;;;;;;5012357;28;20112;-74
2023/03/01 13:23:18;;;;;;;2.90;2.60;;;14.60;51.80;;;;;;5006990;28;20087;-74